Aérodrome :







RETROUVEZ-NOUS SUR...

 
LOGIN :

S'inscrire | Disclaimer

   EN    FR    IT 

 









Légende :    VFR   VFR Marginal   IFR   IFR Intensif   IFR Très Intensif
Visi : 
Plafond : 
>= 8 km
>= 3000ft
5 à 8 km
1000 à 3000 ft
1500m à 5 km
500 à 1000 ft
800 à 1500m
200 à 500 ft
< 800m
< 200 ft
Symboles :   Orages  Brouillard  Fortes neiges  Fortes précipitations  Vent > 20 kt






- Altitude de l'aérodrome : 71 ft
- Code IATA : YBC


CYBC - Baie Comeau

DERNIER METAR :
  • 210822Z AUTO 34004KT 9SM OVC026 M01/M04 A3011 RMK SLP200

METARs EXPIRÉS :
  • 210811Z AUTO 33005KT 9SM OVC024 M00/M04 A3011 RMK SLP199
  • 210800Z AUTO 34004KT 310V040 9SM SCT021 OVC026 M00/M03 A3011 RMK SLP198
  • 210756Z AUTO 35004KT 320V060 9SM BKN023 OVC028 00/M03 A3011 RMK SLP198
  • 210700Z AUTO 07004KT 9SM SCT021 OVC025 M00/M03 A3010 RMK SLP196
  • 210644Z AUTO 03003KT 9SM BKN025 OVC110 M00/M04 A3010 RMK SLP194
  • 210626Z AUTO 01004KT 9SM BKN021 OVC028 M00/M04 A3010 RMK SLP196
  • 210600Z AUTO 36004KT 9SM BKN021 OVC026 M00/M04 A3010 RMK SLP195

TAF TAF CYBC
Valide du 21 à 08h jusqu'au 21 à 20h UTC


210738Z 2108/2120 04005KT P6SM OVC020
TEMPO 2108/2120 OVC030
BECMG 2116/2118 19005KT RMK FCST BASED ON AUTO OBS. NXT FCST BY 211400Z



MET'MAP, la Météo Aéronautique d'un coup d'oeil ! - Copyright ORBIFLY Décembre 2007 - Disclaimer

ORBIFLY MET'MAP TEAM :

Programmation & Développement : Alexandra Zaïnal
Conception & Développement : Baudouin d'Aumeries
Co-Programmation & Développement : Marc-Olivier Méhu
Soutien technique & logistique : Manuel Goepfert

Contact : metmap@orbifly.com




SOURCES & CREDITS :

   NOAA